createdAt,value
2019-04-28T00:02:36.875Z,98720.98
2019-04-28T00:07:42.447Z,98715.97
2019-04-28T00:12:51.029Z,98719.09
2019-04-28T00:17:56.275Z,98728.69
2019-04-28T00:23:11.669Z,98720.64
2019-04-28T00:28:17.061Z,98728.59
2019-04-28T00:33:23.161Z,98732.17
2019-04-28T00:38:28.910Z,98727.69
2019-04-28T00:43:34.414Z,98727.23
2019-04-28T00:48:40.935Z,98727.65
2019-04-28T00:53:46.490Z,98722.46
2019-04-28T00:58:53.179Z,98723.13
2019-04-28T01:03:58.717Z,98724.05
2019-04-28T01:09:05.705Z,98709.80
2019-04-28T01:14:13.182Z,98705.67
2019-04-28T01:19:23.079Z,98709.45
2019-04-28T01:24:29.757Z,98723.98
2019-04-28T01:29:35.155Z,98732.17
2019-04-28T01:34:40.463Z,98743.03
2019-04-28T01:39:45.864Z,98751.20
2019-04-28T01:44:51.403Z,98762.05
2019-04-28T01:49:58.023Z,98766.82
2019-04-28T01:55:03.345Z,98773.32
2019-04-28T02:00:21.905Z,98769.88
2019-04-28T02:05:19.770Z,98771.23
2019-04-28T02:10:26.052Z,98780.94
2019-04-28T02:15:31.719Z,98784.29
2019-04-28T02:20:39.821Z,98776.25
2019-04-28T02:25:45.086Z,98772.98
2019-04-28T02:30:53.779Z,98775.58
2019-04-28T02:35:57.233Z,98769.42
2019-04-28T02:41:04.389Z,98766.06
2019-04-28T02:46:10.521Z,98763.03
2019-04-28T02:51:25.455Z,98768.98
2019-04-28T02:56:30.985Z,98774.19
2019-04-28T03:01:36.604Z,98784.91
2019-04-28T03:06:42.032Z,98785.23
2019-04-28T03:11:51.170Z,98792.95
2019-04-28T03:16:56.630Z,98811.77
2019-04-28T03:22:01.930Z,98818.89
2019-04-28T03:27:30.986Z,98826.38
2019-04-28T03:32:51.783Z,98830.14
2019-04-28T03:37:46.593Z,98821.48
2019-04-28T03:42:54.021Z,98822.69
2019-04-28T03:48:00.339Z,98834.20
2019-04-28T03:53:05.955Z,98837.59
2019-04-28T03:58:11.588Z,98845.64
2019-04-28T04:03:21.065Z,98846.20
2019-04-28T04:08:31.000Z,98845.30
2019-04-28T04:13:57.971Z,98852.67
2019-04-28T04:19:04.577Z,98864.81
2019-04-28T04:24:10.789Z,98869.27
2019-04-28T04:29:17.405Z,98876.47
2019-04-28T04:34:22.728Z,98880.08
2019-04-28T04:39:30.363Z,98876.95
2019-04-28T04:44:38.019Z,98871.98
2019-04-28T04:49:43.589Z,98870.44
2019-04-28T04:54:51.069Z,98869.62
2019-04-28T04:59:55.922Z,98873.23
2019-04-28T05:05:20.371Z,98880.34
2019-04-28T05:10:25.864Z,98884.95
2019-04-28T05:15:33.541Z,98882.63
2019-04-28T05:20:40.369Z,98888.91
2019-04-28T05:25:46.448Z,98885.48
2019-04-28T05:30:51.995Z,98885.03
2019-04-28T05:35:59.218Z,98888.31
2019-04-28T05:41:04.941Z,98904.52
2019-04-28T05:46:10.824Z,98904.59
2019-04-28T05:51:19.890Z,98913.66
2019-04-28T05:56:35.738Z,98922.74
2019-04-28T06:02:01.530Z,98922.17
2019-04-28T06:07:14.648Z,98919.78
2019-04-28T06:12:20.334Z,98921.91
2019-04-28T06:17:25.704Z,98916.13
2019-04-28T06:22:33.617Z,98928.32
2019-04-28T06:27:39.169Z,98919.22
2019-04-28T06:32:44.399Z,98928.88
2019-04-28T06:37:49.954Z,98923.89
2019-04-28T06:42:55.258Z,98935.30
2019-04-28T06:48:00.936Z,98940.94
2019-04-28T06:53:06.158Z,98942.27
2019-04-28T06:58:13.688Z,98960.45
2019-04-28T07:03:23.225Z,98958.83
2019-04-28T07:08:26.450Z,98976.40
2019-04-28T07:13:31.784Z,98970.23
2019-04-28T07:18:39.177Z,98973.77
2019-04-28T07:23:46.855Z,98978.89
2019-04-28T07:28:52.509Z,98968.02
2019-04-28T07:33:58.692Z,98977.44
2019-04-28T07:39:06.217Z,98968.80
2019-04-28T07:44:11.532Z,98970.50
2019-04-28T07:49:16.854Z,98982.33
2019-04-28T07:54:22.397Z,98986.84
2019-04-28T07:59:27.834Z,98994.90
2019-04-28T08:04:36.930Z,99000.83
2019-04-28T08:09:42.425Z,99014.70
2019-04-28T08:14:48.238Z,99012.86
2019-04-28T08:19:54.850Z,99024.73
2019-04-28T08:25:01.132Z,99032.48
2019-04-28T08:30:07.104Z,99036.69
2019-04-28T08:35:12.824Z,99034.03
2019-04-28T08:40:18.543Z,99046.69
2019-04-28T08:45:24.432Z,99042.50
2019-04-28T08:50:31.612Z,99045.65
2019-04-28T08:55:36.996Z,99047.48
2019-04-28T09:00:42.543Z,99055.39
2019-04-28T09:05:48.705Z,99061.95
2019-04-28T09:10:54.192Z,99068.43
2019-04-28T09:16:01.859Z,99067.41
2019-04-28T09:21:09.375Z,99061.16
2019-04-28T09:26:15.188Z,99055.53
2019-04-28T09:31:21.586Z,99048.08
2019-04-28T09:36:27.615Z,99058.15
2019-04-28T09:41:33.500Z,99063.12
2019-04-28T09:46:41.971Z,99051.80
2019-04-28T09:51:49.857Z,99041.25
2019-04-28T09:56:57.303Z,99041.48
2019-04-28T10:02:07.220Z,99060.06
2019-04-28T10:07:13.162Z,99056.31
2019-04-28T10:12:26.832Z,99060.25
2019-04-28T10:17:27.767Z,99054.63
2019-04-28T10:22:33.862Z,99055.23
2019-04-28T10:27:42.226Z,99047.09
2019-04-28T10:32:48.057Z,99044.35
2019-04-28T10:37:56.363Z,99067.12
2019-04-28T10:43:02.607Z,99073.86
2019-04-28T10:48:09.529Z,99077.42
2019-04-28T10:53:15.783Z,99084.54
2019-04-28T10:58:22.149Z,99082.27
2019-04-28T11:03:27.636Z,99092.57
2019-04-28T11:08:42.196Z,99094.34
2019-04-28T11:13:48.706Z,99090.30
2019-04-28T11:18:54.605Z,99090.66
2019-04-28T11:24:02.729Z,99085.14
2019-04-28T11:29:09.970Z,99084.00
2019-04-28T11:34:25.087Z,99088.91
2019-04-28T11:39:34.936Z,99092.16
2019-04-28T11:44:40.453Z,99102.86
2019-04-28T11:49:46.760Z,99102.98
2019-04-28T11:54:54.407Z,99100.03
2019-04-28T12:00:00.216Z,99092.44
2019-04-28T12:05:07.211Z,99083.30
2019-04-28T12:10:19.378Z,99090.77
2019-04-28T12:15:57.472Z,99081.10
2019-04-28T12:21:02.803Z,99083.48
2019-04-28T12:26:08.146Z,99086.77
2019-04-28T12:31:14.747Z,99090.01
2019-04-28T12:36:23.554Z,99099.25
2019-04-28T12:41:29.356Z,99109.01
2019-04-28T12:46:36.372Z,99100.64
2019-04-28T12:51:44.061Z,99109.78
2019-04-28T12:56:49.989Z,99103.83
2019-04-28T13:02:06.079Z,99104.81
2019-04-28T13:07:11.637Z,99096.27
2019-04-28T13:12:17.321Z,99084.03
2019-04-28T13:17:25.190Z,99095.91
2019-04-28T13:22:32.077Z,99092.22
2019-04-28T13:27:38.795Z,99090.73
2019-04-28T13:32:46.523Z,99083.39
2019-04-28T13:37:52.341Z,99092.73
2019-04-28T13:42:57.615Z,99079.67
2019-04-28T13:48:02.949Z,99077.00
2019-04-28T13:53:09.530Z,99082.62
2019-04-28T13:58:17.260Z,99080.24
2019-04-28T14:03:51.261Z,99073.67
2019-04-28T14:08:56.692Z,99080.25
2019-04-28T14:14:02.068Z,99073.89
2019-04-28T14:19:09.666Z,99071.83
2019-04-28T14:24:16.409Z,99070.67
2019-04-28T14:29:21.902Z,99075.98
2019-04-28T14:34:29.885Z,99077.73
2019-04-28T14:39:36.152Z,99078.94
2019-04-28T14:44:41.970Z,99070.95
2019-04-28T14:49:47.447Z,99083.45
2019-04-28T14:54:52.974Z,99078.68
2019-04-28T14:59:59.300Z,99067.83
2019-04-28T15:05:28.054Z,99067.98
2019-04-28T15:10:56.598Z,99069.20
2019-04-28T15:16:01.934Z,99077.77
2019-04-28T15:21:08.559Z,99077.30
2019-04-28T15:26:14.392Z,99078.65
2019-04-28T15:31:22.002Z,99080.28
2019-04-28T15:36:28.381Z,99073.88
2019-04-28T15:41:33.943Z,99074.15
2019-04-28T15:46:39.281Z,99078.02
2019-04-28T15:51:47.254Z,99079.34
2019-04-28T15:56:52.574Z,99073.61
2019-04-28T16:01:58.350Z,99073.36
2019-04-28T16:07:05.513Z,99076.56
2019-04-28T16:12:14.439Z,99070.41
2019-04-28T16:17:24.818Z,99069.13
2019-04-28T16:22:32.731Z,99069.87
2019-04-28T16:27:38.679Z,99069.41
2019-04-28T16:32:44.054Z,99073.63
2019-04-28T16:37:51.178Z,99068.05
2019-04-28T16:43:02.963Z,99073.47
2019-04-28T16:48:08.527Z,99072.70
2019-04-28T16:53:14.039Z,99075.92
2019-04-28T16:58:31.179Z,99081.00
2019-04-28T17:03:37.798Z,99077.78
2019-04-28T17:08:44.718Z,99089.28
2019-04-28T17:13:51.537Z,99089.53
2019-04-28T17:18:56.889Z,99088.22
2019-04-28T17:24:02.555Z,99099.34
2019-04-28T17:29:10.117Z,99096.38
2019-04-28T17:34:17.925Z,99107.73
2019-04-28T17:39:24.916Z,99109.56
2019-04-28T17:44:31.848Z,99112.48
2019-04-28T17:49:38.372Z,99119.31
2019-04-28T17:54:43.820Z,99113.88
2019-04-28T17:59:50.940Z,99120.52
2019-04-28T18:05:25.592Z,99126.86
2019-04-28T18:10:32.668Z,99139.83
2019-04-28T18:15:57.067Z,99145.35
2019-04-28T18:21:02.611Z,99142.50
2019-04-28T18:26:10.283Z,99149.27
2019-04-28T18:31:46.377Z,99157.45
2019-04-28T18:37:01.191Z,99160.47
2019-04-28T18:42:22.696Z,99169.97
2019-04-28T18:47:31.208Z,99183.61
2019-04-28T18:52:37.720Z,99188.13
2019-04-28T18:57:43.231Z,99186.43
2019-04-28T19:02:49.618Z,99181.42
2019-04-28T19:08:16.950Z,99183.72
2019-04-28T19:13:25.731Z,99188.56
2019-04-28T19:18:37.590Z,99193.48
2019-04-28T19:23:42.777Z,99193.17
2019-04-28T19:28:48.260Z,99199.23
2019-04-28T19:33:54.436Z,99198.01
2019-04-28T19:39:03.598Z,99197.30
2019-04-28T19:44:09.762Z,99194.05
2019-04-28T19:49:15.992Z,99200.52
2019-04-28T19:54:24.717Z,99194.97
2019-04-28T19:59:51.388Z,99202.36
2019-04-28T20:04:58.428Z,99201.52
2019-04-28T20:10:05.342Z,99199.39
2019-04-28T20:15:12.227Z,99207.61
2019-04-28T20:20:19.233Z,99204.52
2019-04-28T20:25:25.091Z,99204.68
2019-04-28T20:30:30.872Z,99205.94
2019-04-28T20:35:40.100Z,99200.61
2019-04-28T20:40:55.535Z,99203.61
2019-04-28T20:46:03.190Z,99212.56
2019-04-28T20:51:09.089Z,99207.55
2019-04-28T20:56:16.776Z,99212.41
2019-04-28T21:01:23.718Z,99207.53
2019-04-28T21:06:29.290Z,99208.23
2019-04-28T21:11:36.403Z,99214.13
2019-04-28T21:16:41.823Z,99211.12
2019-04-28T21:21:47.647Z,99208.87
2019-04-28T21:26:53.890Z,99210.72
2019-04-28T21:32:01.371Z,99211.86
2019-04-28T21:37:08.941Z,99212.71
2019-04-28T21:42:17.749Z,99211.14
2019-04-28T21:47:29.869Z,99213.53
2019-04-28T21:52:36.466Z,99219.05
2019-04-28T21:57:41.768Z,99209.63
2019-04-28T22:02:47.294Z,99211.22
2019-04-28T22:07:52.601Z,99221.60
2019-04-28T22:12:57.945Z,99224.45
2019-04-28T22:18:04.643Z,99216.22
2019-04-28T22:23:18.606Z,99215.02
2019-04-28T22:28:19.707Z,99212.77
2019-04-28T22:33:25.085Z,99218.33
2019-04-28T22:38:31.450Z,99221.31
2019-04-28T22:43:36.922Z,99221.22
2019-04-28T22:48:46.447Z,99228.03
2019-04-28T22:53:53.465Z,99220.00
2019-04-28T22:59:03.564Z,99223.05
2019-04-28T23:04:15.290Z,99227.67
2019-04-28T23:09:21.154Z,99230.03
2019-04-28T23:14:28.142Z,99217.45
2019-04-28T23:19:35.972Z,99218.69
2019-04-28T23:24:43.523Z,99223.27
2019-04-28T23:29:48.792Z,99217.47
2019-04-28T23:34:54.084Z,99219.56
2019-04-28T23:39:59.577Z,99211.98
2019-04-28T23:45:05.650Z,99214.28
2019-04-28T23:50:13.486Z,99208.63
2019-04-28T23:55:21.040Z,99215.65
